sensor_id;sensor_type;location;lat;lon;timestamp;temperature;humidity
55091;DHT22;40985;53.180;5.800;2024-03-06T00:02:08;4.70;99.90
55091;DHT22;40985;53.180;5.800;2024-03-06T00:04:34;4.70;99.90
55091;DHT22;40985;53.180;5.800;2024-03-06T00:07:00;4.70;99.90
55091;DHT22;40985;53.180;5.800;2024-03-06T00:09:26;4.70;99.90
55091;DHT22;40985;53.180;5.800;2024-03-06T00:11:53;4.70;99.90
55091;DHT22;40985;53.180;5.800;2024-03-06T00:14:19;4.70;99.90
55091;DHT22;40985;53.180;5.800;2024-03-06T00:16:47;4.70;99.90
55091;DHT22;40985;53.180;5.800;2024-03-06T00:19:13;4.70;99.90
55091;DHT22;40985;53.180;5.800;2024-03-06T00:21:39;4.70;99.90
55091;DHT22;40985;53.180;5.800;2024-03-06T00:24:05;4.70;99.90
55091;DHT22;40985;53.180;5.800;2024-03-06T00:26:31;4.70;99.90
55091;DHT22;40985;53.180;5.800;2024-03-06T00:28:56;4.70;99.90
55091;DHT22;40985;53.180;5.800;2024-03-06T00:31:22;4.60;99.90
55091;DHT22;40985;53.180;5.800;2024-03-06T00:33:48;4.70;99.90
55091;DHT22;40985;53.180;5.800;2024-03-06T00:36:13;4.60;99.90
55091;DHT22;40985;53.180;5.800;2024-03-06T00:38:39;4.60;99.90
55091;DHT22;40985;53.180;5.800;2024-03-06T00:41:05;4.60;99.90
55091;DHT22;40985;53.180;5.800;2024-03-06T00:43:31;4.60;99.90
55091;DHT22;40985;53.180;5.800;2024-03-06T00:45:56;4.60;99.90
55091;DHT22;40985;53.180;5.800;2024-03-06T00:48:22;4.60;99.90
55091;DHT22;40985;53.180;5.800;2024-03-06T00:50:48;4.60;99.90
55091;DHT22;40985;53.180;5.800;2024-03-06T00:53:14;4.50;99.90
55091;DHT22;40985;53.180;5.800;2024-03-06T00:55:39;4.50;99.90
55091;DHT22;40985;53.180;5.800;2024-03-06T00:58:05;4.50;99.90
55091;DHT22;40985;53.180;5.800;2024-03-06T01:00:32;4.50;99.90
55091;DHT22;40985;53.180;5.800;2024-03-06T01:02:58;4.50;99.90
55091;DHT22;40985;53.180;5.800;2024-03-06T01:05:24;4.50;99.90
55091;DHT22;40985;53.180;5.800;2024-03-06T01:07:49;4.40;99.90
55091;DHT22;40985;53.180;5.800;2024-03-06T01:10:15;4.50;99.90
55091;DHT22;40985;53.180;5.800;2024-03-06T01:12:41;4.50;99.90
55091;DHT22;40985;53.180;5.800;2024-03-06T01:15:11;4.50;99.90
55091;DHT22;40985;53.180;5.800;2024-03-06T01:17:37;4.50;99.90
55091;DHT22;40985;53.180;5.800;2024-03-06T01:20:03;4.40;99.90
55091;DHT22;40985;53.180;5.800;2024-03-06T01:22:33;4.40;99.90
55091;DHT22;40985;53.180;5.800;2024-03-06T01:24:58;4.40;99.90
55091;DHT22;40985;53.180;5.800;2024-03-06T01:27:25;4.40;99.90
55091;DHT22;40985;53.180;5.800;2024-03-06T01:29:50;4.40;99.90
55091;DHT22;40985;53.180;5.800;2024-03-06T01:32:16;4.40;99.90
55091;DHT22;40985;53.180;5.800;2024-03-06T01:34:42;4.40;99.90
55091;DHT22;40985;53.180;5.800;2024-03-06T01:37:07;4.40;99.90
55091;DHT22;40985;53.180;5.800;2024-03-06T01:39:33;4.40;99.90
55091;DHT22;40985;53.180;5.800;2024-03-06T01:42:01;4.40;99.90
55091;DHT22;40985;53.180;5.800;2024-03-06T01:44:27;4.30;99.90
55091;DHT22;40985;53.180;5.800;2024-03-06T01:46:53;4.40;99.90
55091;DHT22;40985;53.180;5.800;2024-03-06T01:49:19;4.40;99.90
55091;DHT22;40985;53.180;5.800;2024-03-06T01:51:51;4.30;99.90
55091;DHT22;40985;53.180;5.800;2024-03-06T01:54:18;4.40;99.90
55091;DHT22;40985;53.180;5.800;2024-03-06T01:56:46;4.30;99.90
55091;DHT22;40985;53.180;5.800;2024-03-06T01:59:13;4.30;99.90
55091;DHT22;40985;53.180;5.800;2024-03-06T02:01:39;4.40;99.90
55091;DHT22;40985;53.180;5.800;2024-03-06T02:04:07;4.40;99.90
55091;DHT22;40985;53.180;5.800;2024-03-06T02:06:35;4.30;99.90
55091;DHT22;40985;53.180;5.800;2024-03-06T02:09:01;4.30;99.90
55091;DHT22;40985;53.180;5.800;2024-03-06T02:11:28;4.30;99.90
55091;DHT22;40985;53.180;5.800;2024-03-06T02:13:55;4.30;99.90
55091;DHT22;40985;53.180;5.800;2024-03-06T02:16:20;4.30;99.90
55091;DHT22;40985;53.180;5.800;2024-03-06T02:18:55;4.30;99.90
55091;DHT22;40985;53.180;5.800;2024-03-06T02:21:23;4.30;99.90
55091;DHT22;40985;53.180;5.800;2024-03-06T02:23:50;4.30;99.90
55091;DHT22;40985;53.180;5.800;2024-03-06T02:26:20;4.30;99.90
55091;DHT22;40985;53.180;5.800;2024-03-06T02:28:53;4.30;99.90
55091;DHT22;40985;53.180;5.800;2024-03-06T02:31:19;4.30;99.90
55091;DHT22;40985;53.180;5.800;2024-03-06T02:33:47;4.30;99.90
55091;DHT22;40985;53.180;5.800;2024-03-06T02:36:14;4.30;99.90
55091;DHT22;40985;53.180;5.800;2024-03-06T02:38:39;4.30;99.90
55091;DHT22;40985;53.180;5.800;2024-03-06T02:41:05;4.30;99.90
55091;DHT22;40985;53.180;5.800;2024-03-06T02:43:35;4.30;99.90
55091;DHT22;40985;53.180;5.800;2024-03-06T02:46:01;4.30;99.90
55091;DHT22;40985;53.180;5.800;2024-03-06T02:48:27;4.20;99.90
55091;DHT22;40985;53.180;5.800;2024-03-06T02:50:53;4.30;99.90
55091;DHT22;40985;53.180;5.800;2024-03-06T02:53:19;4.30;99.90
55091;DHT22;40985;53.180;5.800;2024-03-06T02:55:44;4.30;99.90
55091;DHT22;40985;53.180;5.800;2024-03-06T02:58:10;4.30;99.90
55091;DHT22;40985;53.180;5.800;2024-03-06T03:00:36;4.20;99.90
55091;DHT22;40985;53.180;5.800;2024-03-06T03:03:02;4.20;99.90
55091;DHT22;40985;53.180;5.800;2024-03-06T03:05:28;4.30;99.90
55091;DHT22;40985;53.180;5.800;2024-03-06T03:07:54;4.20;99.90
55091;DHT22;40985;53.180;5.800;2024-03-06T03:10:20;4.20;99.90
55091;DHT22;40985;53.180;5.800;2024-03-06T03:12:46;4.30;99.90
55091;DHT22;40985;53.180;5.800;2024-03-06T03:15:11;4.20;99.90
55091;DHT22;40985;53.180;5.800;2024-03-06T03:17:37;4.20;99.90
55091;DHT22;40985;53.180;5.800;2024-03-06T03:20:03;4.20;99.90
55091;DHT22;40985;53.180;5.800;2024-03-06T03:22:41;4.30;99.90
55091;DHT22;40985;53.180;5.800;2024-03-06T03:25:10;4.20;99.90
55091;DHT22;40985;53.180;5.800;2024-03-06T03:27:40;4.20;99.90
55091;DHT22;40985;53.180;5.800;2024-03-06T03:30:10;4.20;99.90
55091;DHT22;40985;53.180;5.800;2024-03-06T03:32:36;4.20;99.90
55091;DHT22;40985;53.180;5.800;2024-03-06T03:35:03;4.20;99.90
55091;DHT22;40985;53.180;5.800;2024-03-06T03:37:29;4.20;99.90
55091;DHT22;40985;53.180;5.800;2024-03-06T03:39:54;4.20;99.90
55091;DHT22;40985;53.180;5.800;2024-03-06T03:42:20;4.20;99.90
55091;DHT22;40985;53.180;5.800;2024-03-06T03:44:46;4.20;99.90
55091;DHT22;40985;53.180;5.800;2024-03-06T03:47:11;4.20;99.90
55091;DHT22;40985;53.180;5.800;2024-03-06T03:49:38;4.20;99.90
55091;DHT22;40985;53.180;5.800;2024-03-06T03:52:04;4.20;99.90
55091;DHT22;40985;53.180;5.800;2024-03-06T03:54:29;4.20;99.90
55091;DHT22;40985;53.180;5.800;2024-03-06T03:56:55;4.20;99.90
55091;DHT22;40985;53.180;5.800;2024-03-06T03:59:21;4.20;99.90
55091;DHT22;40985;53.180;5.800;2024-03-06T04:01:47;4.20;99.90
55091;DHT22;40985;53.180;5.800;2024-03-06T04:04:13;4.20;99.90
55091;DHT22;40985;53.180;5.800;2024-03-06T04:06:39;4.20;99.90
55091;DHT22;40985;53.180;5.800;2024-03-06T04:09:04;4.20;99.90
55091;DHT22;40985;53.180;5.800;2024-03-06T04:11:30;4.20;99.90
55091;DHT22;40985;53.180;5.800;2024-03-06T04:13:59;4.20;99.90
55091;DHT22;40985;53.180;5.800;2024-03-06T04:16:25;4.20;99.90
55091;DHT22;40985;53.180;5.800;2024-03-06T04:18:51;4.20;99.90
55091;DHT22;40985;53.180;5.800;2024-03-06T04:21:17;4.20;99.90
55091;DHT22;40985;53.180;5.800;2024-03-06T04:23:43;4.20;99.90
55091;DHT22;40985;53.180;5.800;2024-03-06T04:26:09;4.20;99.90
55091;DHT22;40985;53.180;5.800;2024-03-06T04:28:35;4.20;99.90
55091;DHT22;40985;53.180;5.800;2024-03-06T04:31:00;4.20;99.90
55091;DHT22;40985;53.180;5.800;2024-03-06T04:33:26;4.30;99.90
55091;DHT22;40985;53.180;5.800;2024-03-06T04:35:52;4.20;99.90
55091;DHT22;40985;53.180;5.800;2024-03-06T04:38:17;4.20;99.90
55091;DHT22;40985;53.180;5.800;2024-03-06T04:40:43;4.20;99.90
55091;DHT22;40985;53.180;5.800;2024-03-06T04:43:10;4.20;99.90
55091;DHT22;40985;53.180;5.800;2024-03-06T04:45:36;4.20;99.90
55091;DHT22;40985;53.180;5.800;2024-03-06T04:48:02;4.20;99.90
55091;DHT22;40985;53.180;5.800;2024-03-06T04:50:27;4.10;99.90
55091;DHT22;40985;53.180;5.800;2024-03-06T04:52:53;4.10;99.90
55091;DHT22;40985;53.180;5.800;2024-03-06T04:55:19;4.10;99.90
55091;DHT22;40985;53.180;5.800;2024-03-06T04:57:48;4.20;99.90
55091;DHT22;40985;53.180;5.800;2024-03-06T05:00:14;4.10;99.90
55091;DHT22;40985;53.180;5.800;2024-03-06T05:02:40;4.10;99.90
55091;DHT22;40985;53.180;5.800;2024-03-06T05:05:07;4.10;99.90
55091;DHT22;40985;53.180;5.800;2024-03-06T05:07:34;4.10;99.90
55091;DHT22;40985;53.180;5.800;2024-03-06T05:10:00;4.10;99.90
55091;DHT22;40985;53.180;5.800;2024-03-06T05:12:26;4.10;99.90
55091;DHT22;40985;53.180;5.800;2024-03-06T05:14:53;4.10;99.90
55091;DHT22;40985;53.180;5.800;2024-03-06T05:17:19;4.10;99.90
55091;DHT22;40985;53.180;5.800;2024-03-06T05:19:46;4.10;99.90
55091;DHT22;40985;53.180;5.800;2024-03-06T05:22:13;4.10;99.90
55091;DHT22;40985;53.180;5.800;2024-03-06T05:24:40;4.10;99.90
55091;DHT22;40985;53.180;5.800;2024-03-06T05:27:06;4.10;99.90
55091;DHT22;40985;53.180;5.800;2024-03-06T05:29:32;4.10;99.90
55091;DHT22;40985;53.180;5.800;2024-03-06T05:31:58;4.10;99.90
55091;DHT22;40985;53.180;5.800;2024-03-06T05:34:24;4.10;99.90
55091;DHT22;40985;53.180;5.800;2024-03-06T05:36:50;4.10;99.90
55091;DHT22;40985;53.180;5.800;2024-03-06T05:39:15;4.10;99.90
55091;DHT22;40985;53.180;5.800;2024-03-06T05:41:43;4.10;99.90
55091;DHT22;40985;53.180;5.800;2024-03-06T05:44:10;4.10;99.90
55091;DHT22;40985;53.180;5.800;2024-03-06T05:46:36;4.10;99.90
55091;DHT22;40985;53.180;5.800;2024-03-06T05:49:02;4.10;99.90
55091;DHT22;40985;53.180;5.800;2024-03-06T05:51:28;4.10;99.90
55091;DHT22;40985;53.180;5.800;2024-03-06T05:53:54;4.10;99.90
55091;DHT22;40985;53.180;5.800;2024-03-06T05:56:20;4.10;99.90
55091;DHT22;40985;53.180;5.800;2024-03-06T05:58:46;4.10;99.90
55091;DHT22;40985;53.180;5.800;2024-03-06T06:01:16;4.10;99.90
55091;DHT22;40985;53.180;5.800;2024-03-06T06:03:48;4.10;99.90
55091;DHT22;40985;53.180;5.800;2024-03-06T06:06:17;4.10;99.90
55091;DHT22;40985;53.180;5.800;2024-03-06T06:08:45;4.10;99.90
55091;DHT22;40985;53.180;5.800;2024-03-06T06:11:11;4.20;99.90
55091;DHT22;40985;53.180;5.800;2024-03-06T06:13:37;4.10;99.90
55091;DHT22;40985;53.180;5.800;2024-03-06T06:16:05;4.10;99.90
55091;DHT22;40985;53.180;5.800;2024-03-06T06:18:31;4.10;99.90
55091;DHT22;40985;53.180;5.800;2024-03-06T06:20:58;4.00;99.90
55091;DHT22;40985;53.180;5.800;2024-03-06T06:23:23;4.00;99.90
55091;DHT22;40985;53.180;5.800;2024-03-06T06:25:49;4.10;99.90
55091;DHT22;40985;53.180;5.800;2024-03-06T06:28:15;4.10;99.90
55091;DHT22;40985;53.180;5.800;2024-03-06T06:30:41;4.10;99.90
55091;DHT22;40985;53.180;5.800;2024-03-06T06:33:07;4.10;99.90
55091;DHT22;40985;53.180;5.800;2024-03-06T06:35:34;4.10;99.90
55091;DHT22;40985;53.180;5.800;2024-03-06T06:38:02;4.10;99.90
55091;DHT22;40985;53.180;5.800;2024-03-06T06:40:30;4.10;99.90
55091;DHT22;40985;53.180;5.800;2024-03-06T06:42:56;4.10;99.90
55091;DHT22;40985;53.180;5.800;2024-03-06T06:45:22;4.20;99.90
55091;DHT22;40985;53.180;5.800;2024-03-06T06:47:48;4.20;99.90
55091;DHT22;40985;53.180;5.800;2024-03-06T06:50:15;4.10;99.90
55091;DHT22;40985;53.180;5.800;2024-03-06T06:52:41;4.20;99.90
55091;DHT22;40985;53.180;5.800;2024-03-06T06:55:07;4.20;99.90
55091;DHT22;40985;53.180;5.800;2024-03-06T06:57:37;4.20;99.90
55091;DHT22;40985;53.180;5.800;2024-03-06T07:00:03;4.20;99.90
55091;DHT22;40985;53.180;5.800;2024-03-06T07:02:39;4.20;99.90
55091;DHT22;40985;53.180;5.800;2024-03-06T07:05:06;4.20;99.90
55091;DHT22;40985;53.180;5.800;2024-03-06T07:07:33;4.20;99.90
55091;DHT22;40985;53.180;5.800;2024-03-06T07:09:59;4.20;99.90
55091;DHT22;40985;53.180;5.800;2024-03-06T07:12:25;4.20;99.90
55091;DHT22;40985;53.180;5.800;2024-03-06T07:14:50;4.20;99.90
55091;DHT22;40985;53.180;5.800;2024-03-06T07:17:16;4.20;99.90
55091;DHT22;40985;53.180;5.800;2024-03-06T07:19:42;4.20;99.90
55091;DHT22;40985;53.180;5.800;2024-03-06T07:22:08;4.30;99.90
55091;DHT22;40985;53.180;5.800;2024-03-06T07:24:34;4.30;99.90
55091;DHT22;40985;53.180;5.800;2024-03-06T07:26:59;4.30;99.90
55091;DHT22;40985;53.180;5.800;2024-03-06T07:29:27;4.40;99.90
55091;DHT22;40985;53.180;5.800;2024-03-06T07:31:53;4.30;99.90
55091;DHT22;40985;53.180;5.800;2024-03-06T07:34:19;4.40;99.90
55091;DHT22;40985;53.180;5.800;2024-03-06T07:36:47;4.40;99.90
55091;DHT22;40985;53.180;5.800;2024-03-06T07:39:15;4.40;99.90
55091;DHT22;40985;53.180;5.800;2024-03-06T07:41:41;4.40;99.90
55091;DHT22;40985;53.180;5.800;2024-03-06T07:44:08;4.40;99.90
55091;DHT22;40985;53.180;5.800;2024-03-06T07:46:34;4.40;99.90
55091;DHT22;40985;53.180;5.800;2024-03-06T07:49:00;4.40;99.90
55091;DHT22;40985;53.180;5.800;2024-03-06T07:51:37;4.40;99.90
55091;DHT22;40985;53.180;5.800;2024-03-06T07:54:03;4.40;99.90
55091;DHT22;40985;53.180;5.800;2024-03-06T07:56:32;4.40;99.90
55091;DHT22;40985;53.180;5.800;2024-03-06T07:58:57;4.40;99.90
55091;DHT22;40985;53.180;5.800;2024-03-06T08:01:23;4.40;99.90
55091;DHT22;40985;53.180;5.800;2024-03-06T08:03:49;4.40;99.90
55091;DHT22;40985;53.180;5.800;2024-03-06T08:06:15;4.40;99.90
55091;DHT22;40985;53.180;5.800;2024-03-06T08:08:42;4.40;99.90
55091;DHT22;40985;53.180;5.800;2024-03-06T08:11:10;4.40;99.90
55091;DHT22;40985;53.180;5.800;2024-03-06T08:13:36;4.40;99.90
55091;DHT22;40985;53.180;5.800;2024-03-06T08:16:02;4.40;99.90
55091;DHT22;40985;53.180;5.800;2024-03-06T08:18:30;4.50;99.90
55091;DHT22;40985;53.180;5.800;2024-03-06T08:20:56;4.50;99.90
55091;DHT22;40985;53.180;5.800;2024-03-06T08:23:22;4.50;99.90
55091;DHT22;40985;53.180;5.800;2024-03-06T08:25:49;4.50;99.90
55091;DHT22;40985;53.180;5.800;2024-03-06T08:28:14;4.50;99.90
55091;DHT22;40985;53.180;5.800;2024-03-06T08:30:41;4.50;99.90
55091;DHT22;40985;53.180;5.800;2024-03-06T08:33:06;4.50;99.90
55091;DHT22;40985;53.180;5.800;2024-03-06T08:35:32;4.50;99.90
55091;DHT22;40985;53.180;5.800;2024-03-06T08:37:58;4.50;99.90
55091;DHT22;40985;53.180;5.800;2024-03-06T08:40:24;4.50;99.90
55091;DHT22;40985;53.180;5.800;2024-03-06T08:42:51;4.50;99.90
55091;DHT22;40985;53.180;5.800;2024-03-06T08:45:17;4.50;99.90
55091;DHT22;40985;53.180;5.800;2024-03-06T08:47:46;4.50;99.90
55091;DHT22;40985;53.180;5.800;2024-03-06T08:50:13;4.50;99.90
55091;DHT22;40985;53.180;5.800;2024-03-06T08:52:39;4.50;99.90
55091;DHT22;40985;53.180;5.800;2024-03-06T08:55:07;4.50;99.90
55091;DHT22;40985;53.180;5.800;2024-03-06T08:57:34;4.60;99.90
55091;DHT22;40985;53.180;5.800;2024-03-06T09:00:00;4.50;99.90
55091;DHT22;40985;53.180;5.800;2024-03-06T09:02:26;4.60;99.90
55091;DHT22;40985;53.180;5.800;2024-03-06T09:04:52;4.60;99.90
55091;DHT22;40985;53.180;5.800;2024-03-06T09:07:18;4.60;99.90
55091;DHT22;40985;53.180;5.800;2024-03-06T09:09:45;4.60;99.90
55091;DHT22;40985;53.180;5.800;2024-03-06T09:12:11;4.60;99.90
55091;DHT22;40985;53.180;5.800;2024-03-06T09:14:38;4.60;99.90
55091;DHT22;40985;53.180;5.800;2024-03-06T09:17:05;4.60;99.90
55091;DHT22;40985;53.180;5.800;2024-03-06T09:19:32;4.70;99.90
55091;DHT22;40985;53.180;5.800;2024-03-06T09:21:59;4.70;99.90
55091;DHT22;40985;53.180;5.800;2024-03-06T09:24:25;4.70;99.90
55091;DHT22;40985;53.180;5.800;2024-03-06T09:26:52;4.80;99.90
55091;DHT22;40985;53.180;5.800;2024-03-06T09:29:18;4.80;99.90
55091;DHT22;40985;53.180;5.800;2024-03-06T09:31:44;4.80;99.90
55091;DHT22;40985;53.180;5.800;2024-03-06T09:34:10;4.90;99.90
55091;DHT22;40985;53.180;5.800;2024-03-06T09:36:39;4.80;99.90
55091;DHT22;40985;53.180;5.800;2024-03-06T09:39:04;4.90;99.90
55091;DHT22;40985;53.180;5.800;2024-03-06T09:41:31;4.90;99.90
55091;DHT22;40985;53.180;5.800;2024-03-06T09:43:58;4.90;99.90
55091;DHT22;40985;53.180;5.800;2024-03-06T09:46:24;4.90;99.90
55091;DHT22;40985;53.180;5.800;2024-03-06T09:48:51;4.90;99.90
55091;DHT22;40985;53.180;5.800;2024-03-06T09:51:17;4.90;99.90
55091;DHT22;40985;53.180;5.800;2024-03-06T09:53:43;4.90;99.90
55091;DHT22;40985;53.180;5.800;2024-03-06T09:56:08;4.90;99.90
55091;DHT22;40985;53.180;5.800;2024-03-06T09:58:37;4.90;99.90
55091;DHT22;40985;53.180;5.800;2024-03-06T10:01:05;5.00;99.90
55091;DHT22;40985;53.180;5.800;2024-03-06T10:03:33;4.90;99.90
55091;DHT22;40985;53.180;5.800;2024-03-06T10:05:59;4.90;99.90
55091;DHT22;40985;53.180;5.800;2024-03-06T10:08:25;5.00;99.90
55091;DHT22;40985;53.180;5.800;2024-03-06T10:10:52;5.00;99.90
55091;DHT22;40985;53.180;5.800;2024-03-06T10:13:23;5.00;99.90
55091;DHT22;40985;53.180;5.800;2024-03-06T10:16:03;5.00;99.90
55091;DHT22;40985;53.180;5.800;2024-03-06T10:18:30;5.00;99.90
55091;DHT22;40985;53.180;5.800;2024-03-06T10:20:56;5.00;99.90
55091;DHT22;40985;53.180;5.800;2024-03-06T10:23:23;5.00;99.90
55091;DHT22;40985;53.180;5.800;2024-03-06T10:25:50;5.00;99.90
55091;DHT22;40985;53.180;5.800;2024-03-06T10:28:20;5.10;99.90
55091;DHT22;40985;53.180;5.800;2024-03-06T10:30:46;5.10;99.90
55091;DHT22;40985;53.180;5.800;2024-03-06T10:33:16;5.10;99.90
55091;DHT22;40985;53.180;5.800;2024-03-06T10:35:45;5.10;99.90
55091;DHT22;40985;53.180;5.800;2024-03-06T10:38:12;5.10;99.90
55091;DHT22;40985;53.180;5.800;2024-03-06T10:40:39;5.10;99.90
55091;DHT22;40985;53.180;5.800;2024-03-06T10:43:06;5.20;99.90
55091;DHT22;40985;53.180;5.800;2024-03-06T10:45:40;5.20;99.90
55091;DHT22;40985;53.180;5.800;2024-03-06T10:48:07;5.20;99.90
55091;DHT22;40985;53.180;5.800;2024-03-06T10:50:35;5.20;99.90
55091;DHT22;40985;53.180;5.800;2024-03-06T10:53:03;5.30;99.90
55091;DHT22;40985;53.180;5.800;2024-03-06T10:55:30;5.30;99.90
55091;DHT22;40985;53.180;5.800;2024-03-06T10:58:00;5.20;99.90
55091;DHT22;40985;53.180;5.800;2024-03-06T11:00:26;5.30;99.90
55091;DHT22;40985;53.180;5.800;2024-03-06T11:02:54;5.30;99.90
55091;DHT22;40985;53.180;5.800;2024-03-06T11:05:21;5.40;99.90
55091;DHT22;40985;53.180;5.800;2024-03-06T11:07:47;5.40;99.90
55091;DHT22;40985;53.180;5.800;2024-03-06T11:10:12;5.40;99.90
55091;DHT22;40985;53.180;5.800;2024-03-06T11:12:42;5.50;99.90
55091;DHT22;40985;53.180;5.800;2024-03-06T11:15:14;5.40;99.90
55091;DHT22;40985;53.180;5.800;2024-03-06T11:17:41;5.50;99.90
55091;DHT22;40985;53.180;5.800;2024-03-06T11:20:16;5.60;99.90
55091;DHT22;40985;53.180;5.800;2024-03-06T11:28:20;5.70;99.90
55091;DHT22;40985;53.180;5.800;2024-03-06T11:31:03;5.80;99.90
55091;DHT22;40985;53.180;5.800;2024-03-06T11:33:42;5.80;99.90
55091;DHT22;40985;53.180;5.800;2024-03-06T11:36:27;5.80;99.90
55091;DHT22;40985;53.180;5.800;2024-03-06T11:39:06;5.80;99.90
55091;DHT22;40985;53.180;5.800;2024-03-06T11:41:47;5.80;99.90
55091;DHT22;40985;53.180;5.800;2024-03-06T11:44:16;5.90;99.90
55091;DHT22;40985;53.180;5.800;2024-03-06T11:49:24;5.90;99.90
55091;DHT22;40985;53.180;5.800;2024-03-06T11:51:54;6.00;99.90
55091;DHT22;40985;53.180;5.800;2024-03-06T11:54:20;5.90;99.90
55091;DHT22;40985;53.180;5.800;2024-03-06T11:56:55;5.90;99.90
55091;DHT22;40985;53.180;5.800;2024-03-06T11:59:32;5.90;99.90
55091;DHT22;40985;53.180;5.800;2024-03-06T12:01:59;5.90;99.90
55091;DHT22;40985;53.180;5.800;2024-03-06T12:04:27;6.00;99.90
55091;DHT22;40985;53.180;5.800;2024-03-06T12:06:57;5.90;99.90
55091;DHT22;40985;53.180;5.800;2024-03-06T12:09:23;5.90;99.90
55091;DHT22;40985;53.180;5.800;2024-03-06T12:11:49;5.90;99.90
55091;DHT22;40985;53.180;5.800;2024-03-06T12:14:18;5.90;99.90
55091;DHT22;40985;53.180;5.800;2024-03-06T12:16:58;5.90;99.90
55091;DHT22;40985;53.180;5.800;2024-03-06T12:19:26;6.00;99.90
55091;DHT22;40985;53.180;5.800;2024-03-06T12:21:53;6.00;99.90
55091;DHT22;40985;53.180;5.800;2024-03-06T12:24:19;6.00;99.90
55091;DHT22;40985;53.180;5.800;2024-03-06T12:26:46;6.10;99.90
55091;DHT22;40985;53.180;5.800;2024-03-06T12:29:17;6.20;99.90
55091;DHT22;40985;53.180;5.800;2024-03-06T12:31:44;6.20;99.90
55091;DHT22;40985;53.180;5.800;2024-03-06T12:34:14;6.20;99.90
55091;DHT22;40985;53.180;5.800;2024-03-06T12:36:42;6.20;99.90
55091;DHT22;40985;53.180;5.800;2024-03-06T12:39:08;6.20;99.90
55091;DHT22;40985;53.180;5.800;2024-03-06T12:41:41;6.30;99.90
55091;DHT22;40985;53.180;5.800;2024-03-06T12:44:07;6.30;99.90
55091;DHT22;40985;53.180;5.800;2024-03-06T12:46:33;6.40;99.90
55091;DHT22;40985;53.180;5.800;2024-03-06T12:48:59;6.50;99.90
55091;DHT22;40985;53.180;5.800;2024-03-06T12:51:24;6.50;99.90
55091;DHT22;40985;53.180;5.800;2024-03-06T12:53:50;6.50;99.90
55091;DHT22;40985;53.180;5.800;2024-03-06T12:56:17;6.50;99.90
55091;DHT22;40985;53.180;5.800;2024-03-06T12:58:43;6.60;99.90
55091;DHT22;40985;53.180;5.800;2024-03-06T13:01:09;6.60;99.90
55091;DHT22;40985;53.180;5.800;2024-03-06T13:03:36;6.60;99.90
55091;DHT22;40985;53.180;5.800;2024-03-06T13:06:02;6.60;99.90
55091;DHT22;40985;53.180;5.800;2024-03-06T13:08:30;6.80;99.90
55091;DHT22;40985;53.180;5.800;2024-03-06T13:10:55;6.80;99.90
55091;DHT22;40985;53.180;5.800;2024-03-06T13:13:22;6.70;99.90
55091;DHT22;40985;53.180;5.800;2024-03-06T13:15:50;6.80;99.90
55091;DHT22;40985;53.180;5.800;2024-03-06T13:18:16;6.80;99.90
55091;DHT22;40985;53.180;5.800;2024-03-06T13:20:42;6.90;99.90
55091;DHT22;40985;53.180;5.800;2024-03-06T13:23:08;6.90;99.90
55091;DHT22;40985;53.180;5.800;2024-03-06T13:25:33;7.00;99.90
55091;DHT22;40985;53.180;5.800;2024-03-06T13:27:59;7.00;99.90
55091;DHT22;40985;53.180;5.800;2024-03-06T13:30:25;6.90;99.90
55091;DHT22;40985;53.180;5.800;2024-03-06T13:32:51;7.00;99.90
55091;DHT22;40985;53.180;5.800;2024-03-06T13:35:17;7.00;99.90
55091;DHT22;40985;53.180;5.800;2024-03-06T13:37:43;7.10;99.90
55091;DHT22;40985;53.180;5.800;2024-03-06T13:40:10;7.10;99.90
55091;DHT22;40985;53.180;5.800;2024-03-06T13:42:39;7.10;99.90
55091;DHT22;40985;53.180;5.800;2024-03-06T13:45:06;7.10;99.90
55091;DHT22;40985;53.180;5.800;2024-03-06T13:47:40;7.10;99.90
55091;DHT22;40985;53.180;5.800;2024-03-06T13:50:14;7.10;99.90
55091;DHT22;40985;53.180;5.800;2024-03-06T13:52:40;7.20;99.90
55091;DHT22;40985;53.180;5.800;2024-03-06T13:55:07;7.30;99.90
55091;DHT22;40985;53.180;5.800;2024-03-06T13:57:34;7.20;99.90
55091;DHT22;40985;53.180;5.800;2024-03-06T14:00:05;7.20;99.90
55091;DHT22;40985;53.180;5.800;2024-03-06T14:02:32;7.10;99.90
55091;DHT22;40985;53.180;5.800;2024-03-06T14:04:57;7.20;99.90
55091;DHT22;40985;53.180;5.800;2024-03-06T14:07:24;7.10;99.90
55091;DHT22;40985;53.180;5.800;2024-03-06T14:09:50;7.10;99.90
55091;DHT22;40985;53.180;5.800;2024-03-06T14:12:16;7.20;99.90
55091;DHT22;40985;53.180;5.800;2024-03-06T14:14:42;7.20;99.90
55091;DHT22;40985;53.180;5.800;2024-03-06T14:17:08;7.20;99.90
55091;DHT22;40985;53.180;5.800;2024-03-06T14:19:34;7.20;99.90
55091;DHT22;40985;53.180;5.800;2024-03-06T14:22:00;7.30;99.90
55091;DHT22;40985;53.180;5.800;2024-03-06T14:24:26;7.40;99.90
55091;DHT22;40985;53.180;5.800;2024-03-06T14:26:51;7.40;99.90
55091;DHT22;40985;53.180;5.800;2024-03-06T14:29:17;7.40;99.90
55091;DHT22;40985;53.180;5.800;2024-03-06T14:31:43;7.40;99.90
55091;DHT22;40985;53.180;5.800;2024-03-06T14:34:09;7.40;99.90
55091;DHT22;40985;53.180;5.800;2024-03-06T14:36:36;7.40;99.90
55091;DHT22;40985;53.180;5.800;2024-03-06T14:39:01;7.40;99.90
55091;DHT22;40985;53.180;5.800;2024-03-06T14:41:27;7.40;99.90
55091;DHT22;40985;53.180;5.800;2024-03-06T14:43:53;7.40;99.90
55091;DHT22;40985;53.180;5.800;2024-03-06T14:46:19;7.50;99.90
55091;DHT22;40985;53.180;5.800;2024-03-06T14:48:45;7.50;99.90
55091;DHT22;40985;53.180;5.800;2024-03-06T14:51:11;7.60;99.90
55091;DHT22;40985;53.180;5.800;2024-03-06T14:53:37;7.60;99.90
55091;DHT22;40985;53.180;5.800;2024-03-06T14:56:04;7.60;99.90
55091;DHT22;40985;53.180;5.800;2024-03-06T14:58:29;7.60;99.90
55091;DHT22;40985;53.180;5.800;2024-03-06T15:00:55;7.70;99.90
55091;DHT22;40985;53.180;5.800;2024-03-06T15:03:21;7.70;99.90
55091;DHT22;40985;53.180;5.800;2024-03-06T15:05:46;7.70;99.90
55091;DHT22;40985;53.180;5.800;2024-03-06T15:08:12;7.70;99.90
55091;DHT22;40985;53.180;5.800;2024-03-06T15:10:38;7.80;99.90
55091;DHT22;40985;53.180;5.800;2024-03-06T15:13:04;7.70;99.90
55091;DHT22;40985;53.180;5.800;2024-03-06T15:15:30;7.70;99.90
55091;DHT22;40985;53.180;5.800;2024-03-06T15:17:57;7.70;99.90
55091;DHT22;40985;53.180;5.800;2024-03-06T15:20:23;7.80;99.90
55091;DHT22;40985;53.180;5.800;2024-03-06T15:22:48;7.80;99.90
55091;DHT22;40985;53.180;5.800;2024-03-06T15:25:14;7.80;99.90
55091;DHT22;40985;53.180;5.800;2024-03-06T15:27:41;7.70;99.90
55091;DHT22;40985;53.180;5.800;2024-03-06T15:30:08;7.70;99.90
55091;DHT22;40985;53.180;5.800;2024-03-06T15:32:38;7.80;99.90
55091;DHT22;40985;53.180;5.800;2024-03-06T15:35:04;7.80;99.90
55091;DHT22;40985;53.180;5.800;2024-03-06T15:37:30;7.80;99.90
55091;DHT22;40985;53.180;5.800;2024-03-06T15:39:57;7.70;99.90
55091;DHT22;40985;53.180;5.800;2024-03-06T15:42:24;7.70;99.90
55091;DHT22;40985;53.180;5.800;2024-03-06T15:44:51;7.70;99.90
55091;DHT22;40985;53.180;5.800;2024-03-06T15:47:18;7.80;99.90
55091;DHT22;40985;53.180;5.800;2024-03-06T15:49:44;7.70;99.90
55091;DHT22;40985;53.180;5.800;2024-03-06T15:52:11;7.70;99.90